Time;durP1;ratioP1;P1;durP2;ratioP2;P2;SDS_P1;SDS_P2;PMS_P1;PMS_P2;Temp;Humidity;BMP_temperature;BMP_pressure;BME280_temperature;BME280_humidity;BME280_pressure;Samples;Min_cycle;Max_cycle;Signal;HPM_P1;HPM_P2
2021/04/22 00:00:32;;;;;;;8.57;1.87;;;9.70;99.90;;;;;;4999063;28;21016;-84
2021/04/22 00:02:58;;;;;;;7.83;1.90;;;9.90;99.90;;;;;;4964378;28;20273;-83
2021/04/22 00:05:38;;;;;;;6.67;1.93;;;9.80;99.90;;;;;;4972629;28;20188;-85
2021/04/22 00:08:07;;;;;;;6.67;2.07;;;9.90;99.90;;;;;;5002216;28;20247;-85
2021/04/22 00:10:49;;;;;;;7.57;2.00;;;10.00;99.90;;;;;;4983618;28;20658;-84
2021/04/22 00:13:20;;;;;;;9.03;1.90;;;10.20;99.90;;;;;;4999699;28;20310;-83
2021/04/22 00:15:48;;;;;;;6.10;1.90;;;10.20;99.90;;;;;;4991670;28;20208;-86
2021/04/22 00:18:15;;;;;;;5.00;1.83;;;10.20;99.90;;;;;;4978471;28;20217;-84
2021/04/22 00:20:42;;;;;;;5.80;1.70;;;10.10;99.90;;;;;;4983323;28;20198;-84
2021/04/22 00:23:11;;;;;;;7.20;2.10;;;10.10;99.90;;;;;;4969258;28;20190;-84
2021/04/22 00:25:41;;;;;;;4.83;1.77;;;10.20;99.90;;;;;;4974480;28;20596;-86
2021/04/22 00:28:10;;;;;;;11.67;2.13;;;10.10;99.90;;;;;;4966713;28;20198;-82
2021/04/22 00:30:38;;;;;;;9.47;2.20;;;10.10;99.90;;;;;;4972121;28;20609;-82
2021/04/22 00:33:20;;;;;;;8.13;2.00;;;10.20;99.90;;;;;;4976191;28;20594;-83
2021/04/22 00:35:48;;;;;;;4.80;1.83;;;10.20;99.90;;;;;;4973686;28;20194;-86
2021/04/22 00:38:15;;;;;;;9.63;2.10;;;10.20;99.90;;;;;;4967275;28;20288;-82
2021/04/22 00:40:43;;;;;;;11.40;1.97;;;10.00;99.90;;;;;;4971234;28;20189;-82
2021/04/22 00:43:14;;;;;;;8.10;2.10;;;10.10;99.90;;;;;;4991397;28;20180;-83
2021/04/22 00:45:42;;;;;;;6.47;2.07;;;10.20;99.90;;;;;;4991835;28;20189;-82
2021/04/22 00:48:14;;;;;;;11.87;2.50;;;10.30;99.90;;;;;;4990534;28;20284;-85
2021/04/22 00:50:47;;;;;;;6.63;2.13;;;10.30;99.90;;;;;;4981008;28;20621;-85
2021/04/22 00:53:15;;;;;;;10.27;2.37;;;10.40;99.90;;;;;;4987866;28;20186;-84
2021/04/22 00:55:41;;;;;;;12.47;2.37;;;10.30;99.90;;;;;;4973130;28;20193;-85
2021/04/22 00:58:09;;;;;;;6.10;2.57;;;10.40;99.90;;;;;;4977565;28;20276;-84
2021/04/22 01:00:41;;;;;;;9.33;2.43;;;10.40;99.90;;;;;;4996244;28;20903;-81
2021/04/22 01:03:09;;;;;;;9.03;2.40;;;10.30;99.90;;;;;;4973684;28;20213;-86
2021/04/22 01:05:46;;;;;;;9.70;2.53;;;10.40;99.90;;;;;;4977375;28;20188;-84
2021/04/22 01:08:14;;;;;;;11.97;2.67;;;10.40;99.90;;;;;;4968417;28;20204;-84
2021/04/22 01:10:40;;;;;;;8.47;2.80;;;10.50;99.90;;;;;;4994317;28;20199;-83
2021/04/22 01:13:07;;;;;;;15.57;2.80;;;10.50;99.90;;;;;;4973404;28;20201;-84
2021/04/22 01:15:35;;;;;;;7.73;2.47;;;10.70;99.90;;;;;;4975320;28;20197;-84
2021/04/22 01:18:03;;;;;;;12.13;2.63;;;10.60;99.90;;;;;;4996651;28;20221;-86
2021/04/22 01:20:42;;;;;;;11.40;2.33;;;10.60;99.90;;;;;;4993446;28;20198;-82
2021/04/22 01:23:10;;;;;;;10.97;2.50;;;10.50;99.90;;;;;;4974304;28;20201;-82
2021/04/22 01:25:45;;;;;;;12.43;3.23;;;10.40;99.90;;;;;;4969329;28;20550;-84
2021/04/22 01:28:16;;;;;;;11.53;2.83;;;10.60;99.90;;;;;;4970715;28;20216;-85
2021/04/22 01:30:51;;;;;;;9.97;2.40;;;10.70;99.90;;;;;;5016327;28;20198;-84
2021/04/22 01:33:24;;;;;;;9.87;2.50;;;10.50;99.90;;;;;;4971052;28;20650;-86
2021/04/22 01:35:56;;;;;;;8.63;2.80;;;10.70;99.90;;;;;;4977288;28;20201;-82
2021/04/22 01:38:25;;;;;;;9.53;2.80;;;10.80;99.90;;;;;;4972698;28;20438;-81
2021/04/22 01:40:52;;;;;;;10.00;2.53;;;10.90;99.90;;;;;;4987237;28;20190;-82
2021/04/22 01:43:26;;;;;;;11.27;2.40;;;10.90;99.90;;;;;;4982524;28;20843;-81
2021/04/22 01:45:58;;;;;;;6.90;2.17;;;10.80;99.90;;;;;;4969876;28;20192;-82
2021/04/22 01:48:26;;;;;;;6.77;2.10;;;10.90;99.90;;;;;;4975773;28;20201;-82
2021/04/22 01:51:10;;;;;;;10.23;2.40;;;11.00;99.90;;;;;;4993586;28;20190;-83
2021/04/22 01:53:36;;;;;;;10.77;2.40;;;11.00;99.90;;;;;;4970332;28;20288;-84
2021/04/22 01:56:03;;;;;;;10.13;2.40;;;11.00;99.90;;;;;;4967630;28;20221;-84
2021/04/22 01:58:33;;;;;;;8.00;2.07;;;11.00;99.90;;;;;;4970940;28;20276;-82
2021/04/22 02:01:00;;;;;;;6.40;2.00;;;10.90;99.90;;;;;;4969239;28;20198;-82
2021/04/22 02:03:32;;;;;;;12.53;2.57;;;10.90;99.90;;;;;;4990026;28;20595;-82
2021/04/22 02:06:04;;;;;;;8.23;2.53;;;10.90;99.90;;;;;;4994929;28;20264;-86
2021/04/22 02:08:33;;;;;;;10.90;2.50;;;10.90;99.90;;;;;;4992018;28;20189;-82
2021/04/22 02:10:59;;;;;;;9.57;2.47;;;10.90;99.90;;;;;;4973319;28;20201;-84
2021/04/22 02:13:27;;;;;;;14.97;2.80;;;10.90;99.90;;;;;;4995342;28;20213;-84
2021/04/22 02:15:55;;;;;;;8.97;2.47;;;10.90;99.90;;;;;;4970347;28;20186;-84
2021/04/22 02:18:21;;;;;;;10.17;2.40;;;10.90;99.90;;;;;;4972895;28;20301;-83
2021/04/22 02:20:49;;;;;;;15.53;2.63;;;10.90;99.90;;;;;;4989473;28;20198;-86
2021/04/22 02:23:20;;;;;;;12.90;2.57;;;10.90;99.90;;;;;;4991587;28;20280;-84
2021/04/22 02:25:47;;;;;;;11.37;2.50;;;10.90;99.90;;;;;;4980908;28;20219;-82
2021/04/22 02:28:27;;;;;;;9.47;2.37;;;10.60;99.90;;;;;;4997361;28;20291;-83
2021/04/22 02:30:53;;;;;;;8.90;2.17;;;10.60;99.90;;;;;;4992751;28;20228;-83
2021/04/22 02:33:21;;;;;;;8.10;2.23;;;10.70;99.90;;;;;;4997004;28;20877;-83
2021/04/22 02:35:50;;;;;;;10.40;2.40;;;10.70;99.90;;;;;;4981435;28;20202;-84
2021/04/22 02:38:17;;;;;;;10.67;2.40;;;10.90;99.90;;;;;;4986056;28;20737;-85
2021/04/22 02:40:46;;;;;;;11.10;2.13;;;10.80;99.90;;;;;;5005924;28;20261;-86
2021/04/22 02:43:16;;;;;;;7.70;2.10;;;10.70;99.90;;;;;;4969918;28;20661;-84
2021/04/22 02:45:53;;;;;;;8.97;2.30;;;10.80;99.90;;;;;;4989354;28;20269;-86
2021/04/22 02:48:29;;;;;;;10.63;2.37;;;10.90;99.90;;;;;;4989167;28;20602;-84
2021/04/22 02:50:56;;;;;;;10.60;2.23;;;11.00;99.90;;;;;;4995866;28;20219;-85
2021/04/22 02:53:31;;;;;;;8.97;2.40;;;11.20;99.90;;;;;;4965421;28;20190;-83
2021/04/22 02:55:58;;;;;;;7.53;2.00;;;11.20;99.90;;;;;;5006296;28;20232;-87
2021/04/22 02:58:27;;;;;;;7.60;2.20;;;11.30;99.90;;;;;;4975408;28;20268;-85
2021/04/22 03:00:58;;;;;;;9.13;2.13;;;11.30;99.90;;;;;;4973508;28;20252;-86
2021/04/22 03:03:24;;;;;;;14.83;2.70;;;11.30;99.90;;;;;;4985665;28;20537;-84
2021/04/22 03:05:54;;;;;;;13.00;2.17;;;11.40;99.90;;;;;;4972565;28;20186;-80
2021/04/22 03:08:20;;;;;;;8.90;2.10;;;11.30;99.90;;;;;;4990029;28;20232;-84
2021/04/22 03:10:47;;;;;;;7.00;2.40;;;11.30;99.90;;;;;;4985143;28;20186;-86
2021/04/22 03:13:13;;;;;;;9.33;2.20;;;11.40;99.90;;;;;;4966444;28;20190;-84
2021/04/22 03:15:43;;;;;;;10.30;2.50;;;11.30;99.90;;;;;;4994691;28;20221;-84
2021/04/22 03:18:12;;;;;;;10.80;2.83;;;11.30;99.90;;;;;;4982334;28;20210;-86
2021/04/22 03:20:41;;;;;;;7.23;2.47;;;11.40;99.90;;;;;;5004391;28;20186;-85
2021/04/22 03:23:12;;;;;;;7.73;2.30;;;11.30;99.90;;;;;;5002703;28;20186;-84
2021/04/22 03:25:45;;;;;;;9.60;2.60;;;11.40;99.90;;;;;;4966604;28;20310;-85
2021/04/22 03:28:15;;;;;;;9.70;2.23;;;11.50;99.90;;;;;;4994194;28;20213;-82
2021/04/22 03:30:53;;;;;;;11.00;2.37;;;11.60;99.90;;;;;;5000340;28;20213;-82
2021/04/22 03:33:23;;;;;;;8.53;2.07;;;11.60;99.90;;;;;;4972489;28;20189;-84
2021/04/22 03:35:53;;;;;;;9.87;2.80;;;11.60;99.90;;;;;;4989361;28;20229;-86
2021/04/22 03:38:20;;;;;;;12.20;2.43;;;11.70;99.90;;;;;;4973956;28;20255;-83
2021/04/22 03:40:46;;;;;;;10.63;2.07;;;11.70;99.90;;;;;;4977239;28;20211;-83
2021/04/22 03:43:13;;;;;;;9.30;2.47;;;11.90;99.90;;;;;;4969740;28;20185;-83
2021/04/22 03:45:42;;;;;;;7.80;1.97;;;12.00;99.90;;;;;;4988783;28;20570;-83
2021/04/22 03:48:10;;;;;;;11.27;2.60;;;12.00;99.90;;;;;;4985783;28;20213;-83
2021/04/22 03:50:36;;;;;;;8.43;2.00;;;12.00;99.90;;;;;;4968141;28;20190;-84
2021/04/22 03:53:03;;;;;;;6.70;2.30;;;12.00;99.90;;;;;;4988034;28;20200;-83
2021/04/22 03:55:29;;;;;;;10.90;2.60;;;12.10;99.90;;;;;;4980687;28;20280;-83
2021/04/22 03:57:56;;;;;;;9.40;2.03;;;12.10;99.90;;;;;;4969772;28;20591;-83
2021/04/22 04:00:28;;;;;;;10.57;2.10;;;12.00;99.90;;;;;;4983182;28;20272;-83
2021/04/22 04:02:59;;;;;;;7.63;1.67;;;11.90;99.90;;;;;;4971268;28;20197;-86
2021/04/22 04:05:29;;;;;;;6.37;1.63;;;12.20;99.90;;;;;;5003061;28;20186;-84
2021/04/22 04:07:58;;;;;;;6.53;1.63;;;12.20;99.90;;;;;;4999514;28;20543;-83
2021/04/22 04:10:29;;;;;;;7.70;1.97;;;12.20;99.90;;;;;;4994183;28;20189;-84
2021/04/22 04:13:00;;;;;;;8.10;2.00;;;12.20;99.90;;;;;;4980527;28;20642;-83
2021/04/22 04:15:34;;;;;;;6.37;2.00;;;12.20;99.90;;;;;;4977267;28;20587;-84
2021/04/22 04:18:08;;;;;;;4.77;1.70;;;12.10;99.90;;;;;;4977637;28;20220;-85
2021/04/22 04:20:36;;;;;;;4.80;1.50;;;12.20;99.90;;;;;;4965660;28;20209;-86
2021/04/22 04:23:05;;;;;;;6.53;2.07;;;12.10;99.90;;;;;;4974110;28;20554;-83
2021/04/22 04:25:35;;;;;;;6.37;1.63;;;12.10;99.90;;;;;;4991069;28;20195;-84
2021/04/22 04:28:04;;;;;;;6.80;2.00;;;12.20;99.90;;;;;;4974708;28;20190;-84
2021/04/22 04:30:39;;;;;;;8.47;2.20;;;12.30;99.90;;;;;;5004389;28;20232;-84
2021/04/22 04:33:11;;;;;;;10.87;2.40;;;12.40;99.90;;;;;;4976494;28;20701;-85
2021/04/22 04:35:45;;;;;;;9.67;2.23;;;12.50;99.90;;;;;;4978835;28;20197;-86
2021/04/22 04:38:13;;;;;;;5.97;2.00;;;12.50;99.90;;;;;;4957313;28;20244;-85
2021/04/22 04:40:42;;;;;;;7.23;1.90;;;12.60;99.90;;;;;;4986923;28;20177;-84
2021/04/22 04:43:20;;;;;;;6.10;2.20;;;12.70;99.90;;;;;;4979840;28;20193;-84
2021/04/22 04:45:57;;;;;;;6.80;1.83;;;12.90;99.90;;;;;;4973288;28;20193;-84
2021/04/22 04:48:30;;;;;;;4.53;1.60;;;13.20;99.90;;;;;;4974249;28;20200;-85
2021/04/22 04:50:58;;;;;;;4.47;2.10;;;13.30;99.90;;;;;;4956246;28;20201;-87
2021/04/22 04:53:24;;;;;;;7.17;1.47;;;13.50;99.90;;;;;;4980780;28;20673;-84
2021/04/22 04:55:50;;;;;;;5.73;1.57;;;13.60;99.90;;;;;;4961292;28;20313;-84
2021/04/22 04:58:17;;;;;;;5.80;1.80;;;13.70;99.90;;;;;;4967241;28;20212;-87
2021/04/22 05:00:43;;;;;;;6.13;2.00;;;13.90;99.90;;;;;;4984233;28;20185;-86
2021/04/22 05:03:09;;;;;;;10.43;1.93;;;14.10;99.90;;;;;;4966151;28;20606;-84
2021/04/22 05:05:36;;;;;;;5.77;1.50;;;14.10;99.90;;;;;;4972317;28;20260;-87
2021/04/22 05:08:08;;;;;;;5.00;1.40;;;14.00;99.90;;;;;;4965756;28;20185;-85
2021/04/22 05:10:42;;;;;;;3.13;1.27;;;14.00;99.90;;;;;;4990380;28;20181;-86
2021/04/22 05:13:10;;;;;;;9.73;1.90;;;13.90;99.90;;;;;;4970528;28;20197;-85
2021/04/22 05:15:38;;;;;;;4.40;1.30;;;13.80;99.90;;;;;;4969544;28;20213;-85
2021/04/22 05:18:14;;;;;;;5.20;1.27;;;13.90;99.90;;;;;;4987751;28;20211;-85
2021/04/22 05:20:41;;;;;;;6.13;1.50;;;14.30;99.90;;;;;;4976722;28;20185;-83
2021/04/22 05:23:12;;;;;;;5.67;1.47;;;14.30;99.90;;;;;;4978800;28;20217;-84
2021/04/22 05:25:43;;;;;;;2.60;1.27;;;14.30;99.90;;;;;;4960971;28;20182;-86
2021/04/22 05:28:10;;;;;;;4.50;1.50;;;14.40;99.90;;;;;;4964425;28;20279;-87
2021/04/22 05:30:43;;;;;;;6.47;1.63;;;14.50;99.90;;;;;;4971744;28;20281;-85
2021/04/22 05:33:15;;;;;;;4.23;1.33;;;14.50;99.90;;;;;;4987116;28;20184;-85
2021/04/22 05:35:43;;;;;;;3.97;1.10;;;14.30;99.90;;;;;;4967014;28;20276;-85
2021/04/22 05:38:11;;;;;;;5.30;1.50;;;14.50;99.90;;;;;;4965626;28;20217;-84
2021/04/22 05:40:37;;;;;;;2.97;1.30;;;15.00;99.90;;;;;;4968059;28;20185;-85
2021/04/22 05:43:07;;;;;;;4.47;1.40;;;15.10;99.90;;;;;;4972873;28;20264;-85
2021/04/22 05:45:37;;;;;;;4.47;1.47;;;15.20;99.90;;;;;;4967197;28;20181;-85
2021/04/22 05:48:07;;;;;;;3.03;1.40;;;15.00;99.90;;;;;;4989755;28;20186;-84
2021/04/22 05:50:35;;;;;;;9.03;1.17;;;15.00;99.90;;;;;;4993899;28;20195;-86
2021/04/22 05:53:05;;;;;;;5.73;1.40;;;14.90;99.90;;;;;;4984739;28;20194;-84
2021/04/22 05:55:36;;;;;;;4.53;1.30;;;15.10;99.90;;;;;;4989842;28;20189;-86
2021/04/22 05:58:03;;;;;;;4.50;1.47;;;15.00;99.90;;;;;;4972320;28;20186;-86
2021/04/22 06:00:31;;;;;;;4.17;1.20;;;15.10;99.90;;;;;;4972785;28;20194;-88
2021/04/22 06:03:01;;;;;;;3.97;1.43;;;15.10;99.90;;;;;;5002562;28;20194;-84
2021/04/22 06:05:28;;;;;;;4.47;1.27;;;15.10;99.90;;;;;;4977332;28;20263;-84
2021/04/22 06:07:56;;;;;;;2.77;1.23;;;15.10;99.90;;;;;;4992302;28;20293;-84
2021/04/22 06:10:24;;;;;;;4.80;1.40;;;15.30;99.90;;;;;;4973545;28;20194;-85
2021/04/22 06:12:58;;;;;;;9.80;1.77;;;15.40;99.90;;;;;;4987488;28;20240;-85
2021/04/22 06:15:25;;;;;;;7.53;1.43;;;15.80;99.90;;;;;;4992495;28;20994;-86
2021/04/22 06:17:52;;;;;;;9.07;1.70;;;15.70;99.90;;;;;;4969020;28;20210;-88
2021/04/22 06:20:26;;;;;;;4.67;1.43;;;15.70;99.90;;;;;;4989398;28;20698;-84
2021/04/22 06:22:58;;;;;;;7.50;1.87;;;15.70;99.90;;;;;;4965218;28;20190;-86
2021/04/22 06:25:28;;;;;;;8.10;1.57;;;15.60;99.90;;;;;;4991307;28;20198;-87
2021/04/22 06:27:58;;;;;;;6.60;1.70;;;15.70;99.90;;;;;;4989095;28;20674;-89
2021/04/22 06:30:27;;;;;;;4.63;1.80;;;15.70;99.90;;;;;;4973808;28;20247;-85
2021/04/22 06:32:56;;;;;;;11.03;1.90;;;15.70;99.90;;;;;;4985041;28;20276;-86
2021/04/22 06:35:24;;;;;;;12.07;2.50;;;16.10;99.90;;;;;;4980090;28;20192;-85
2021/04/22 06:37:59;;;;;;;9.67;2.10;;;16.10;99.90;;;;;;5005200;28;20189;-86
2021/04/22 06:40:28;;;;;;;6.80;2.10;;;16.10;99.90;;;;;;4974713;28;20186;-86
2021/04/22 06:43:01;;;;;;;6.10;1.80;;;16.20;99.90;;;;;;4988522;28;20178;-84
2021/04/22 06:45:30;;;;;;;6.07;2.00;;;16.20;99.90;;;;;;4996355;28;20718;-88
2021/04/22 06:47:57;;;;;;;6.77;1.93;;;16.50;99.90;;;;;;4972948;28;20212;-86
2021/04/22 06:50:26;;;;;;;8.53;2.33;;;16.60;99.90;;;;;;4971917;28;20216;-89
2021/04/22 06:52:53;;;;;;;14.47;2.43;;;17.00;99.90;;;;;;4978192;28;20189;-88
2021/04/22 06:55:25;;;;;;;7.50;2.33;;;16.90;99.90;;;;;;4988854;28;20676;-88
2021/04/22 06:57:52;;;;;;;11.50;2.27;;;16.70;99.90;;;;;;4966676;28;20190;-84
2021/04/22 07:00:25;;;;;;;10.70;2.67;;;16.70;99.90;;;;;;4973231;28;20672;-86
2021/04/22 07:02:53;;;;;;;9.47;2.40;;;16.90;99.90;;;;;;5000708;28;20221;-85
2021/04/22 07:05:26;;;;;;;10.33;2.17;;;17.10;99.90;;;;;;4980335;28;20182;-85
2021/04/22 07:07:53;;;;;;;8.40;2.50;;;17.20;99.90;;;;;;4968354;28;20330;-88
2021/04/22 07:10:21;;;;;;;8.53;1.80;;;17.30;99.90;;;;;;5005389;28;20269;-87
2021/04/22 07:12:50;;;;;;;9.50;2.43;;;17.40;99.90;;;;;;4972502;28;20188;-86
2021/04/22 07:15:23;;;;;;;12.80;2.73;;;17.20;99.90;;;;;;4985484;28;20666;-86
2021/04/22 07:17:52;;;;;;;6.37;2.03;;;17.40;99.90;;;;;;4991289;28;20232;-87
2021/04/22 07:20:23;;;;;;;10.30;2.23;;;17.90;99.90;;;;;;4990774;28;20359;-89
2021/04/22 07:22:54;;;;;;;10.40;2.03;;;17.70;99.90;;;;;;4970916;28;20203;-88
2021/04/22 07:25:26;;;;;;;8.87;2.10;;;17.70;99.90;;;;;;4971126;28;20676;-87
2021/04/22 07:28:03;;;;;;;7.17;1.87;;;17.70;99.90;;;;;;4966251;28;20188;-85
2021/04/22 07:30:49;;;;;;;15.13;2.20;;;17.70;99.90;;;;;;4974612;28;20186;-89
2021/04/22 07:33:20;;;;;;;7.97;2.07;;;17.80;99.90;;;;;;4989385;28;20674;-85
2021/04/22 07:35:51;;;;;;;6.30;2.20;;;18.10;99.90;;;;;;4971892;28;20329;-87
2021/04/22 07:38:22;;;;;;;8.93;2.37;;;18.10;99.90;;;;;;4973888;28;20571;-87
2021/04/22 07:40:51;;;;;;;6.87;1.70;;;18.20;99.90;;;;;;5002081;28;20209;-89
2021/04/22 07:43:18;;;;;;;8.70;1.93;;;18.00;99.90;;;;;;4987384;28;20197;-88
2021/04/22 07:45:47;;;;;;;8.10;2.27;;;18.20;99.90;;;;;;4988496;28;20209;-87
2021/04/22 07:48:16;;;;;;;9.67;2.00;;;18.20;99.90;;;;;;4976304;28;20598;-87
2021/04/22 07:50:44;;;;;;;6.27;1.80;;;18.20;99.90;;;;;;4977094;28;20192;-87
2021/04/22 07:53:12;;;;;;;6.17;2.00;;;18.40;99.90;;;;;;4975289;28;20247;-87
2021/04/22 07:55:47;;;;;;;8.13;1.97;;;18.40;99.90;;;;;;4986643;28;20196;-87
2021/04/22 07:58:20;;;;;;;8.87;1.83;;;18.50;99.90;;;;;;4962474;28;20221;-90
2021/04/22 08:00:51;;;;;;;8.43;2.07;;;18.80;99.90;;;;;;4992991;28;20186;-89
2021/04/22 08:03:19;;;;;;;13.47;2.23;;;18.80;99.90;;;;;;4959120;28;20201;-89
2021/04/22 08:05:55;;;;;;;9.00;2.20;;;18.80;99.90;;;;;;4967639;28;20196;-88
2021/04/22 08:08:24;;;;;;;11.10;2.37;;;18.80;99.90;;;;;;4983790;28;20185;-87
2021/04/22 08:10:53;;;;;;;8.37;2.30;;;18.90;99.90;;;;;;4989141;28;20184;-87
2021/04/22 08:13:23;;;;;;;9.57;2.67;;;19.10;99.90;;;;;;4964483;28;20194;-89
2021/04/22 08:15:54;;;;;;;11.60;2.33;;;19.20;99.90;;;;;;4966078;28;20186;-89
2021/04/22 08:18:28;;;;;;;6.17;2.07;;;19.30;99.90;;;;;;4998141;28;20245;-87
2021/04/22 08:20:57;;;;;;;7.63;2.10;;;19.40;99.90;;;;;;4981723;28;20190;-89
2021/04/22 08:23:31;;;;;;;7.60;2.00;;;19.40;99.90;;;;;;4982850;28;20178;-86
2021/04/22 08:26:11;;;;;;;6.73;1.70;;;19.60;99.90;;;;;;4993106;28;20865;-87
2021/04/22 08:28:39;;;;;;;6.27;2.03;;;19.40;99.90;;;;;;4969375;28;20189;-90
2021/04/22 08:31:29;;;;;;;8.43;1.80;;;19.40;99.90;;;;;;4970036;28;20201;-91
2021/04/22 08:34:00;;;;;;;13.00;2.33;;;19.60;99.90;;;;;;4976153;28;20197;-89
2021/04/22 08:36:27;;;;;;;9.57;2.20;;;19.60;99.90;;;;;;4969939;28;20599;-89
2021/04/22 08:38:56;;;;;;;8.27;1.90;;;19.80;99.90;;;;;;4994349;28;20695;-93
2021/04/22 08:41:23;;;;;;;10.97;2.50;;;19.80;99.90;;;;;;4987988;28;20276;-87
2021/04/22 08:43:55;;;;;;;12.57;2.10;;;19.60;99.90;;;;;;4980134;28;20185;-89
2021/04/22 08:46:23;;;;;;;7.93;1.93;;;19.70;99.90;;;;;;4990300;28;20399;-90
2021/04/22 08:48:51;;;;;;;12.03;3.10;;;19.70;99.90;;;;;;4996656;28;20193;-91
2021/04/22 08:51:18;;;;;;;8.53;2.13;;;19.80;99.90;;;;;;4979914;28;20236;-90
2021/04/22 08:53:46;;;;;;;8.33;2.10;;;20.20;99.90;;;;;;4986052;28;20189;-88
2021/04/22 08:56:17;;;;;;;9.80;2.47;;;20.10;99.90;;;;;;4967118;28;20221;-86
2021/04/22 08:58:43;;;;;;;7.10;1.97;;;20.00;99.90;;;;;;4972323;28;20613;-88
2021/04/22 09:01:15;;;;;;;5.93;2.00;;;20.20;99.90;;;;;;4972536;28;21118;-89
2021/04/22 09:03:47;;;;;;;9.80;2.40;;;20.10;99.90;;;;;;4971214;28;20189;-90
2021/04/22 09:06:15;;;;;;;8.93;2.17;;;20.20;99.90;;;;;;4987433;28;20281;-89
2021/04/22 09:08:51;;;;;;;9.70;2.40;;;20.10;99.90;;;;;;4989895;28;20213;-87
2021/04/22 09:12:01;;;;;;;14.70;2.30;;;20.40;99.90;;;;;;4972226;28;20185;-88
2021/04/22 09:14:28;;;;;;;9.37;2.20;;;20.40;99.90;;;;;;4994135;28;20190;-89
2021/04/22 09:17:01;;;;;;;7.80;2.20;;;20.70;99.90;;;;;;4982895;28;20504;-90
2021/04/22 09:19:44;;;;;;;10.20;2.10;;;20.60;99.90;;;;;;4990603;28;20204;-87
2021/04/22 09:22:11;;;;;;;8.73;2.10;;;20.80;99.90;;;;;;4975123;28;20216;-87
2021/04/22 09:24:38;;;;;;;11.43;2.23;;;20.90;99.90;;;;;;4976390;28;20708;-89
2021/04/22 09:27:16;;;;;;;8.27;2.37;;;21.00;99.90;;;;;;4993465;28;20230;-87
2021/04/22 09:29:50;;;;;;;11.00;2.63;;;21.20;99.90;;;;;;5005841;28;20281;-89
2021/04/22 09:32:28;;;;;;;13.27;2.20;;;21.00;99.90;;;;;;4972647;28;20209;-90
2021/04/22 09:35:04;;;;;;;7.77;2.33;;;21.10;99.90;;;;;;4994732;28;20188;-88
2021/04/22 09:37:44;;;;;;;10.90;3.00;;;21.40;99.90;;;;;;4982281;28;20188;-89
2021/04/22 09:40:38;;;;;;;12.53;2.20;;;21.20;99.90;;;;;;4985679;28;20332;-87
2021/04/22 09:43:14;;;;;;;12.17;2.90;;;21.40;99.90;;;;;;4969937;28;20190;-86
2021/04/22 09:45:52;;;;;;;9.30;2.57;;;21.70;99.90;;;;;;4989217;28;20589;-88
2021/04/22 09:48:28;;;;;;;7.33;2.23;;;21.60;99.90;;;;;;4964572;28;20253;-87
2021/04/22 09:51:11;;;;;;;7.37;2.33;;;21.60;99.90;;;;;;4940576;28;20291;-89
2021/04/22 09:53:40;;;;;;;9.97;2.50;;;21.70;99.90;;;;;;4939834;28;20214;-87
2021/04/22 09:56:12;;;;;;;12.50;2.67;;;21.70;99.90;;;;;;4938390;28;20206;-90
2021/04/22 09:58:40;;;;;;;7.17;2.40;;;21.80;99.90;;;;;;4968862;28;20250;-89
2021/04/22 10:01:21;;;;;;;10.50;2.77;;;21.90;99.90;;;;;;4944387;28;20194;-90
2021/04/22 10:03:56;;;;;;;11.00;2.57;;;22.00;99.90;;;;;;4941557;28;20267;-90
2021/04/22 10:06:25;;;;;;;11.63;2.73;;;22.10;99.90;;;;;;4960836;28;20189;-89
2021/04/22 10:08:52;;;;;;;14.07;3.20;;;22.50;99.90;;;;;;4964195;28;20216;-90
2021/04/22 10:11:23;;;;;;;9.50;2.77;;;22.70;99.90;;;;;;4978858;28;20193;-88
2021/04/22 10:13:52;;;;;;;8.03;2.27;;;23.10;99.90;;;;;;4943647;28;20190;-90
2021/04/22 10:16:32;;;;;;;12.20;2.78;;;23.30;99.90;;;;;;4950772;28;20198;-89
2021/04/22 10:19:20;;;;;;;10.80;2.58;;;22.70;99.90;;;;;;4944188;28;20230;-94
2021/04/22 10:21:47;;;;;;;11.15;3.10;;;23.30;99.90;;;;;;4990783;28;20185;-89
2021/04/22 10:24:26;;;;;;;8.93;2.40;;;23.80;99.90;;;;;;4976235;28;20189;-93
2021/04/22 10:27:01;;;;;;;8.10;2.30;;;23.60;99.90;;;;;;4981439;28;20242;-91
2021/04/22 10:29:33;;;;;;;7.65;2.85;;;23.90;99.90;;;;;;4970096;28;20205;-89
2021/04/22 10:32:02;;;;;;;9.23;2.40;;;23.90;99.90;;;;;;4972637;28;20277;-88
2021/04/22 10:34:31;;;;;;;13.05;2.83;;;23.60;99.90;;;;;;4996892;28;20181;-90
2021/04/22 10:37:01;;;;;;;10.93;2.70;;;23.10;99.90;;;;;;4969196;28;20182;-87
2021/04/22 10:39:27;;;;;;;8.95;2.55;;;23.80;99.90;;;;;;4986685;28;20923;-89
2021/04/22 10:41:55;;;;;;;11.43;2.67;;;24.00;99.90;;;;;;4973793;28;20216;-87
2021/04/22 10:44:23;;;;;;;8.77;2.20;;;23.80;99.90;;;;;;5003965;28;20201;-91
2021/04/22 10:46:52;;;;;;;13.07;2.83;;;23.90;99.90;;;;;;4999873;28;20186;-90
2021/04/22 10:49:19;;;;;;;7.68;2.22;;;23.60;99.90;;;;;;4992129;28;20185;-89
2021/04/22 10:51:49;;;;;;;7.00;2.07;;;23.60;99.90;;;;;;4977225;28;20715;-87
2021/04/22 10:54:22;;;;;;;5.80;1.67;;;23.30;99.90;;;;;;4972502;28;20253;-93
2021/04/22 10:57:03;;;;;;;7.60;2.10;;;23.50;99.90;;;;;;4974435;28;20276;-88
2021/04/22 10:59:33;;;;;;;11.00;2.47;;;23.50;99.90;;;;;;4972739;28;20241;-88
2021/04/22 11:02:21;;;;;;;7.90;2.03;;;23.50;99.90;;;;;;4987656;28;20174;-91
2021/04/22 11:04:50;;;;;;;7.27;2.23;;;23.50;99.90;;;;;;4969138;28;20465;-89
2021/04/22 11:07:25;;;;;;;5.97;1.60;;;23.40;99.90;;;;;;4981174;28;20249;-90
2021/04/22 11:09:57;;;;;;;10.33;2.10;;;23.30;99.90;;;;;;4979394;28;20235;-88
2021/04/22 11:12:32;;;;;;;6.40;2.40;;;23.40;99.90;;;;;;4980179;28;20181;-93
2021/04/22 11:15:00;;;;;;;8.43;2.00;;;23.00;99.90;;;;;;4976974;28;20390;-90
2021/04/22 11:17:42;;;;;;;7.13;1.90;;;23.10;99.90;;;;;;4982633;28;20748;-87
2021/04/22 11:20:21;;;;;;;12.30;1.87;;;23.10;99.90;;;;;;4994980;28;20630;-87
2021/04/22 11:22:58;;;;;;;5.90;1.50;;;23.20;99.90;;;;;;4989512;28;20650;-90
2021/04/22 11:25:58;;;;;;;6.97;1.50;;;23.20;99.90;;;;;;4999576;28;20177;-93
2021/04/22 11:28:37;;;;;;;7.00;1.80;;;23.20;99.90;;;;;;4979573;28;20205;-92
2021/04/22 11:31:26;;;;;;;12.57;2.70;;;23.20;99.90;;;;;;5001555;28;20213;-89
2021/04/22 11:34:15;;;;;;;6.70;2.03;;;22.80;99.90;;;;;;4980837;28;20185;-93
2021/04/22 11:36:57;;;;;;;18.13;2.50;;;23.10;99.90;;;;;;5013521;28;20294;-90
2021/04/22 11:39:43;;;;;;;5.30;1.90;;;23.00;99.90;;;;;;4965515;28;20215;-91
2021/04/22 11:42:11;;;;;;;7.23;2.13;;;23.10;99.90;;;;;;4987649;28;20186;-93
2021/04/22 11:44:53;;;;;;;9.73;2.27;;;23.10;99.90;;;;;;4972798;28;20193;-92
2021/04/22 11:47:29;;;;;;;8.40;2.30;;;23.10;99.90;;;;;;4969079;28;20216;-89
2021/04/22 11:50:19;;;;;;;16.40;2.40;;;23.10;99.90;;;;;;4977561;28;20192;-90
2021/04/22 11:53:06;;;;;;;16.13;3.20;;;23.00;99.90;;;;;;4991378;28;20323;-88
2021/04/22 11:55:57;;;;;;;8.23;2.20;;;22.80;99.90;;;;;;4993904;28;20224;-92
2021/04/22 11:58:26;;;;;;;10.13;2.30;;;23.00;99.90;;;;;;4960346;28;20225;-90
2021/04/22 12:00:59;;;;;;;12.90;2.30;;;22.90;99.90;;;;;;4973126;28;20188;-90
2021/04/22 12:03:41;;;;;;;11.77;2.50;;;22.80;99.90;;;;;;4971743;28;20655;-88
2021/04/22 12:06:13;;;;;;;15.27;3.30;;;22.70;99.90;;;;;;4985592;28;20194;-90
2021/04/22 12:08:50;;;;;;;8.07;2.37;;;22.80;99.90;;;;;;4972474;28;20206;-89
2021/04/22 12:11:25;;;;;;;16.37;2.97;;;22.70;99.90;;;;;;4976038;28;20181;-89
2021/04/22 12:13:56;;;;;;;7.70;2.07;;;22.90;99.90;;;;;;4994115;28;20190;-88
2021/04/22 12:16:36;;;;;;;16.40;2.80;;;22.80;99.90;;;;;;4974270;28;20185;-92
2021/04/22 12:19:03;;;;;;;13.47;2.57;;;22.80;99.90;;;;;;5002416;28;20275;-90
2021/04/22 12:21:39;;;;;;;10.63;2.50;;;22.90;99.90;;;;;;4983913;28;20212;-88
2021/04/22 12:24:23;;;;;;;13.30;2.57;;;22.80;99.90;;;;;;4998253;28;20188;-89
2021/04/22 12:26:51;;;;;;;11.03;2.73;;;22.60;99.90;;;;;;5002908;28;20204;-89
2021/04/22 12:29:20;;;;;;;12.43;3.20;;;22.70;99.90;;;;;;4976649;28;20198;-90
2021/04/22 12:32:07;;;;;;;13.17;3.10;;;22.90;99.90;;;;;;5001327;28;20186;-91
2021/04/22 12:34:37;;;;;;;11.87;3.00;;;22.90;99.90;;;;;;4964125;28;20201;-90
2021/04/22 12:37:08;;;;;;;12.00;2.90;;;22.80;99.90;;;;;;4954966;28;20190;-92
2021/04/22 12:39:46;;;;;;;14.43;2.73;;;22.70;99.90;;;;;;4979443;28;20201;-90
2021/04/22 12:42:28;;;;;;;9.87;3.07;;;22.80;99.90;;;;;;4975422;28;20209;-92
2021/04/22 12:45:22;;;;;;;12.23;2.60;;;22.80;99.90;;;;;;4977775;28;20189;-88
2021/04/22 12:47:57;;;;;;;12.27;2.90;;;22.80;99.90;;;;;;4969075;28;20634;-92
2021/04/22 12:50:27;;;;;;;13.73;2.83;;;22.80;99.90;;;;;;4957526;28;20252;-90
2021/04/22 12:53:28;;;;;;;13.73;3.33;;;22.80;99.90;;;;;;5000652;28;20181;-91
2021/04/22 12:56:14;;;;;;;15.33;2.80;;;22.60;99.90;;;;;;4981782;28;20193;-88
2021/04/22 12:58:51;;;;;;;16.13;3.13;;;22.50;99.90;;;;;;4980872;28;20209;-87
2021/04/22 13:01:28;;;;;;;12.97;2.90;;;22.70;99.90;;;;;;4962572;28;20185;-90
2021/04/22 13:04:00;;;;;;;11.40;3.13;;;22.60;99.90;;;;;;4973647;28;20202;-88
2021/04/22 13:06:31;;;;;;;11.07;3.03;;;22.70;99.90;;;;;;4976614;28;20708;-90